MSC Clorinda — 3FDW7 — position and weather

sailwx.info

Track history (hours):
 
Tides and Currents Weather Stations Pressure Air Temp Water Temp Dewpoint Dewpoint Depression Visibility Wind Speed Wind Dir Waves Ship Positions

MSC Clorinda

Last reported at 2014-Oct-08 19:07 UTC. Time now 2014-Oct-31 11:24 UTC.
Position N 31°28' E 032°18'.
Warning: this ship's position is 22 days out of date.

Length 366 m; draft 15 m.

Type: Ship (hazmat cat A). MMSI: 373233000.

Date/timePositionNaut miles runAvg speedWind from/ knotsBaromVisibWave heightAir tempDewpointWater temp
2014-Oct-08 19:07N 31°28' E 032°18'0 0.8
2014-Oct-08 18:31N 31°27' E 032°18'0 0.0
2014-Oct-08 17:33N 31°27' E 032°18'0 0.1
2014-Oct-08 16:33N 31°28' E 032°18'2013.4
2014-Oct-08 15:06N 31°41' E 032°02'916.4
2014-Oct-08 14:32N 31°47' E 031°53'1616.5
2014-Oct-08 13:33N 31°53' E 031°35'3616.8
2014-Oct-08 11:23N 32°07' E 030°56'1416.9
2014-Oct-08 10:33N 32°13' E 030°40'3716.7
2014-Oct-08 08:19N 32°28' E 029°60'3416.9
2014-Oct-08 06:18N 32°41' E 029°23'1316.8
2014-Oct-08 05:32N 32°46' E 029°09'1716.8
2014-Oct-08 04:33N 32°53' E 028°51'10217.0
2014-Oct-07 22:31N 33°34' E 026°59'61817.1
2014-Oct-06 10:20N 38°03' E 015°33'1114.3
2014-Oct-06 09:33N 38°14' E 015°36'19 3.6
2014-Oct-06 04:12N 38°27' E 015°54'0 0.0
2014-Oct-05 07:20N 38°27' E 015°54'18 1.0
2014-Oct-04 13:06N 38°24' E 015°31'713.4
2014-Oct-04 12:33N 38°23' E 015°22'1110.9
2014-Oct-04 11:33N 38°21' E 015°08'1110.8
2014-Oct-04 10:31N 38°19' E 014°54'3610.6
2014-Oct-04 07:07N 38°22' E 014°08'710.5
2014-Oct-04 06:29N 38°23' E 013°60'1010.7
2014-Oct-04 05:33N 38°23' E 013°47'1110.8
2014-Oct-04 04:33N 38°24' E 013°33'1111.0
2014-Oct-04 03:33N 38°25' E 013°20'1110.8
2014-Oct-04 02:33N 38°26' E 013°06'1110.8
2014-Oct-04 01:33N 38°26' E 012°52'1110.9
2014-Oct-04 00:33N 38°27' E 012°38'14010.7
2014-Oct-03 11:32N 38°37' E 009°40'1111.1
2014-Oct-03 10:33N 38°38' E 009°26'1616.1
2014-Oct-03 09:33N 38°39' E 009°06'1616.4
2014-Oct-03 08:33N 38°41' E 008°45'1616.4
2014-Oct-03 07:33N 38°42' E 008°24'1616.5
2014-Oct-03 06:33N 38°43' E 008°03'18316.3
2014-Oct-02 19:24N 38°56' E 004°09'1416.6
2014-Oct-02 18:33N 38°57' E 003°51'1716.7
2014-Oct-02 17:33N 38°58' E 003°30'1616.1
2014-Oct-02 16:33N 38°59' E 003°09'1615.8
2014-Oct-02 15:34N 39°01' E 002°49'1716.6
2014-Oct-02 14:33N 39°04' E 002°28'1716.8
2014-Oct-02 13:33N 39°07' E 002°07'1716.7
2014-Oct-02 12:33N 39°10' E 001°45'1716.7
2014-Oct-02 11:33N 39°13' E 001°24'1716.5
2014-Oct-02 10:32N 39°16' E 001°03'5316.0
2014-Oct-02 07:15N 39°24' W 000°04'1013.7
2014-Oct-02 06:33N 39°25' W 000°17'2 2.0
2014-Oct-02 05:32N 39°26' W 000°19'0 0.0
2014-Oct-02 04:32N 39°26' W 000°19'0 0.0
2014-Oct-02 03:29N 39°26' W 000°19'0 0.0
2014-Oct-02 02:32N 39°26' W 000°19'0 0.0
2014-Oct-02 01:29N 39°26' W 000°19'0 0.0
2014-Oct-02 00:32N 39°26' W 000°19'0 0.0
2014-Oct-01 23:29N 39°26' W 000°19'0 0.0
2014-Oct-01 22:29N 39°26' W 000°19'0 0.0
2014-Oct-01 21:32N 39°26' W 000°19'0 0.0
2014-Oct-01 20:29N 39°26' W 000°19'0 0.0
2014-Oct-01 19:32N 39°26' W 000°19'0 0.0
2014-Oct-01 18:32N 39°26' W 000°19'0 0.0
2014-Oct-01 17:32N 39°26' W 000°19'0 0.0
2014-Oct-01 16:32N 39°26' W 000°19'0 0.0
2014-Oct-01 15:32N 39°26' W 000°19'0 0.0
2014-Oct-01 14:32N 39°26' W 000°19'0 0.0
2014-Oct-01 13:32N 39°26' W 000°19'0 0.0
2014-Oct-01 12:29N 39°26' W 000°19'0 0.0
2014-Oct-01 11:32N 39°26' W 000°19'0 0.0
2014-Oct-01 10:32N 39°26' W 000°19'0 0.0
2014-Oct-01 09:32N 39°26' W 000°19'0 0.0
2014-Oct-01 08:32N 39°26' W 000°19'0 0.0
2014-Oct-01 07:29N 39°26' W 000°19'0 0.0
2014-Oct-01 06:28N 39°26' W 000°19'0 0.0
2014-Oct-01 05:31N 39°26' W 000°19'0 0.0
2014-Oct-01 04:32N 39°26' W 000°19'0 0.0
2014-Oct-01 03:32N 39°26' W 000°19'0 0.0
2014-Oct-01 02:32N 39°26' W 000°19'0 0.1
2014-Oct-01 01:32N 39°26' W 000°19'3 3.4
2014-Oct-01 00:33N 39°25' W 000°15'1 1.1
2014-Sep-30 23:33N 39°26' W 000°14'1 1.2
2014-Sep-30 22:33N 39°27' W 000°13'5 5.0
2014-Sep-30 21:34N 39°31' W 000°09'5418.0
2014-Sep-30 18:33N 40°08' E 000°43'1818.0
2014-Sep-30 17:33N 40°20' E 001°00'1818.6
2014-Sep-30 16:33N 40°32' E 001°18'1817.6
2014-Sep-30 15:33N 40°45' E 001°34'1818.1
2014-Sep-30 14:33N 40°58' E 001°50'1818.2
2014-Sep-30 13:34N 41°12' E 002°06'7 1.7
2014-Sep-30 09:31N 41°18' E 002°09'0 0.0
2014-Sep-30 06:13N 41°18' E 002°09'0 0.0
2014-Sep-30 01:07N 41°18' E 002°09'0 0.0
2014-Sep-30 00:25N 41°18' E 002°09'1 0.3
2014-Sep-29 22:30N 41°19' E 002°09'4 4.5
2014-Sep-29 21:33N 41°16' E 002°13'1412.8
2014-Sep-29 20:28N 41°16' E 002°32'1313.4
2014-Sep-29 19:31N 41°23' E 002°46'1313.5
2014-Sep-29 18:33N 41°31' E 003°00'1414.3
2014-Sep-29 17:33N 41°38' E 003°16'1814.5
2014-Sep-29 16:20N 41°48' E 003°36'1113.8
2014-Sep-29 15:33N 41°54' E 003°48'1514.6
2014-Sep-29 14:33N 42°04' E 004°03'1714.3
2014-Sep-29 13:20N 42°18' E 004°15'1114.1
2014-Sep-29 12:32N 42°28' E 004°23'1414.2
2014-Sep-29 11:32N 42°40' E 004°34'1714.7
2014-Sep-29 10:23N 42°54' E 004°46'1414.3
2014-Sep-29 09:26N 43°06' E 004°56'1112.9
2014-Sep-29 08:33N 43°17' E 004°59'10 9.7
2014-Sep-29 07:33N 43°25' E 004°51'1 1.0
2014-Sep-29 06:30N 43°25' E 004°50'0 0.0
2014-Sep-29 05:33N 43°25' E 004°50'0 0.0
2014-Sep-29 04:33N 43°25' E 004°50'0 0.0
2014-Sep-29 03:33N 43°25' E 004°50'0 0.0
2014-Sep-29 02:33N 43°25' E 004°50'0 0.0
2014-Sep-29 01:33N 43°25' E 004°50'0 0.0
2014-Sep-29 00:33N 43°25' E 004°50'0 0.0
2014-Sep-28 23:33N 43°25' E 004°50'0 0.0
2014-Sep-28 22:33N 43°25' E 004°50'0 0.0
2014-Sep-28 21:33N 43°25' E 004°50'0 0.0
2014-Sep-28 20:33N 43°25' E 004°50'0 0.0
2014-Sep-28 19:33N 43°25' E 004°50'  
Track history (hours):
 
Tides and Currents Weather Stations Pressure Air Temp Water Temp Dewpoint Dewpoint Depression Visibility Wind Speed Wind Dir Waves Ship Positions

MSC Clorinda

Last reported at 2014-Oct-08 19:07 UTC. Time now 2014-Oct-31 11:24 UTC.
Position N 31°28' E 032°18'.
Warning: this ship's position is 22 days out of date.

Length 366 m; draft 15 m.

Type: Ship (hazmat cat A). MMSI: 373233000.

Date/timePositionNaut miles runAvg speedWind from/ knotsBaromVisibWave heightAir tempDewpointWater temp
2014-Oct-08 19:07N 31°28' E 032°18'0 0.8
2014-Oct-08 18:31N 31°27' E 032°18'0 0.0
2014-Oct-08 17:33N 31°27' E 032°18'0 0.1
2014-Oct-08 16:33N 31°28' E 032°18'2013.4
2014-Oct-08 15:06N 31°41' E 032°02'916.4
2014-Oct-08 14:32N 31°47' E 031°53'1616.5
2014-Oct-08 13:33N 31°53' E 031°35'3616.8
2014-Oct-08 11:23N 32°07' E 030°56'1416.9
2014-Oct-08 10:33N 32°13' E 030°40'3716.7
2014-Oct-08 08:19N 32°28' E 029°60'3416.9
2014-Oct-08 06:18N 32°41' E 029°23'1316.8
2014-Oct-08 05:32N 32°46' E 029°09'1716.8
2014-Oct-08 04:33N 32°53' E 028°51'10217.0
2014-Oct-07 22:31N 33°34' E 026°59'61817.1
2014-Oct-06 10:20N 38°03' E 015°33'1114.3
2014-Oct-06 09:33N 38°14' E 015°36'19 3.6
2014-Oct-06 04:12N 38°27' E 015°54'0 0.0
2014-Oct-05 07:20N 38°27' E 015°54'18 1.0
2014-Oct-04 13:06N 38°24' E 015°31'713.4
2014-Oct-04 12:33N 38°23' E 015°22'1110.9
2014-Oct-04 11:33N 38°21' E 015°08'1110.8
2014-Oct-04 10:31N 38°19' E 014°54'3610.6
2014-Oct-04 07:07N 38°22' E 014°08'710.5
2014-Oct-04 06:29N 38°23' E 013°60'1010.7
2014-Oct-04 05:33N 38°23' E 013°47'1110.8
2014-Oct-04 04:33N 38°24' E 013°33'1111.0
2014-Oct-04 03:33N 38°25' E 013°20'1110.8
2014-Oct-04 02:33N 38°26' E 013°06'1110.8
2014-Oct-04 01:33N 38°26' E 012°52'1110.9
2014-Oct-04 00:33N 38°27' E 012°38'14010.7
2014-Oct-03 11:32N 38°37' E 009°40'1111.1
2014-Oct-03 10:33N 38°38' E 009°26'1616.1
2014-Oct-03 09:33N 38°39' E 009°06'1616.4
2014-Oct-03 08:33N 38°41' E 008°45'1616.4
2014-Oct-03 07:33N 38°42' E 008°24'1616.5
2014-Oct-03 06:33N 38°43' E 008°03'18316.3
2014-Oct-02 19:24N 38°56' E 004°09'1416.6
2014-Oct-02 18:33N 38°57' E 003°51'1716.7
2014-Oct-02 17:33N 38°58' E 003°30'1616.1
2014-Oct-02 16:33N 38°59' E 003°09'1615.8
2014-Oct-02 15:34N 39°01' E 002°49'1716.6
2014-Oct-02 14:33N 39°04' E 002°28'1716.8
2014-Oct-02 13:33N 39°07' E 002°07'1716.7
2014-Oct-02 12:33N 39°10' E 001°45'1716.7
2014-Oct-02 11:33N 39°13' E 001°24'1716.5
2014-Oct-02 10:32N 39°16' E 001°03'5316.0
2014-Oct-02 07:15N 39°24' W 000°04'1013.7
2014-Oct-02 06:33N 39°25' W 000°17'2 2.0
2014-Oct-02 05:32N 39°26' W 000°19'0 0.0
2014-Oct-02 04:32N 39°26' W 000°19'0 0.0
2014-Oct-02 03:29N 39°26' W 000°19'0 0.0
2014-Oct-02 02:32N 39°26' W 000°19'0 0.0
2014-Oct-02 01:29N 39°26' W 000°19'0 0.0
2014-Oct-02 00:32N 39°26' W 000°19'0 0.0
2014-Oct-01 23:29N 39°26' W 000°19'0 0.0
2014-Oct-01 22:29N 39°26' W 000°19'0 0.0
2014-Oct-01 21:32N 39°26' W 000°19'0 0.0
2014-Oct-01 20:29N 39°26' W 000°19'0 0.0
2014-Oct-01 19:32N 39°26' W 000°19'0 0.0
2014-Oct-01 18:32N 39°26' W 000°19'0 0.0
2014-Oct-01 17:32N 39°26' W 000°19'0 0.0
2014-Oct-01 16:32N 39°26' W 000°19'0 0.0
2014-Oct-01 15:32N 39°26' W 000°19'0 0.0
2014-Oct-01 14:32N 39°26' W 000°19'0 0.0
2014-Oct-01 13:32N 39°26' W 000°19'0 0.0
2014-Oct-01 12:29N 39°26' W 000°19'0 0.0
2014-Oct-01 11:32N 39°26' W 000°19'0 0.0
2014-Oct-01 10:32N 39°26' W 000°19'0 0.0
2014-Oct-01 09:32N 39°26' W 000°19'0 0.0
2014-Oct-01 08:32N 39°26' W 000°19'0 0.0
2014-Oct-01 07:29N 39°26' W 000°19'0 0.0
2014-Oct-01 06:28N 39°26' W 000°19'0 0.0
2014-Oct-01 05:31N 39°26' W 000°19'0 0.0
2014-Oct-01 04:32N 39°26' W 000°19'0 0.0
2014-Oct-01 03:32N 39°26' W 000°19'0 0.0
2014-Oct-01 02:32N 39°26' W 000°19'0 0.1
2014-Oct-01 01:32N 39°26' W 000°19'3 3.4
2014-Oct-01 00:33N 39°25' W 000°15'1 1.1
2014-Sep-30 23:33N 39°26' W 000°14'1 1.2
2014-Sep-30 22:33N 39°27' W 000°13'5 5.0
2014-Sep-30 21:34N 39°31' W 000°09'5418.0
2014-Sep-30 18:33N 40°08' E 000°43'1818.0
2014-Sep-30 17:33N 40°20' E 001°00'1818.6
2014-Sep-30 16:33N 40°32' E 001°18'1817.6
2014-Sep-30 15:33N 40°45' E 001°34'1818.1
2014-Sep-30 14:33N 40°58' E 001°50'1818.2
2014-Sep-30 13:34N 41°12' E 002°06'7 1.7
2014-Sep-30 09:31N 41°18' E 002°09'0 0.0
2014-Sep-30 06:13N 41°18' E 002°09'0 0.0
2014-Sep-30 01:07N 41°18' E 002°09'0 0.0
2014-Sep-30 00:25N 41°18' E 002°09'1 0.3
2014-Sep-29 22:30N 41°19' E 002°09'4 4.5
2014-Sep-29 21:33N 41°16' E 002°13'1412.8
2014-Sep-29 20:28N 41°16' E 002°32'1313.4
2014-Sep-29 19:31N 41°23' E 002°46'1313.5
2014-Sep-29 18:33N 41°31' E 003°00'1414.3
2014-Sep-29 17:33N 41°38' E 003°16'1814.5
2014-Sep-29 16:20N 41°48' E 003°36'1113.8
2014-Sep-29 15:33N 41°54' E 003°48'1514.6
2014-Sep-29 14:33N 42°04' E 004°03'1714.3
2014-Sep-29 13:20N 42°18' E 004°15'1114.1
2014-Sep-29 12:32N 42°28' E 004°23'1414.2
2014-Sep-29 11:32N 42°40' E 004°34'1714.7
2014-Sep-29 10:23N 42°54' E 004°46'1414.3
2014-Sep-29 09:26N 43°06' E 004°56'1112.9
2014-Sep-29 08:33N 43°17' E 004°59'10 9.7
2014-Sep-29 07:33N 43°25' E 004°51'1 1.0
2014-Sep-29 06:30N 43°25' E 004°50'0 0.0
2014-Sep-29 05:33N 43°25' E 004°50'0 0.0
2014-Sep-29 04:33N 43°25' E 004°50'0 0.0
2014-Sep-29 03:33N 43°25' E 004°50'0 0.0
2014-Sep-29 02:33N 43°25' E 004°50'0 0.0
2014-Sep-29 01:33N 43°25' E 004°50'0 0.0
2014-Sep-29 00:33N 43°25' E 004°50'0 0.0
2014-Sep-28 23:33N 43°25' E 004°50'0 0.0
2014-Sep-28 22:33N 43°25' E 004°50'0 0.0
2014-Sep-28 21:33N 43°25' E 004°50'0 0.0
2014-Sep-28 20:33N 43°25' E 004°50'0 0.0
2014-Sep-28 19:33N 43°25' E 004°50'  

Dump ship's entire track history